createdAt,value
2018-09-26T00:03:01.651Z,81.89
2018-09-26T00:05:30.510Z,81.58
2018-09-26T00:07:59.383Z,81.31
2018-09-26T00:10:28.204Z,81.41
2018-09-26T00:12:57.275Z,81.87
2018-09-26T00:15:26.311Z,82.43
2018-09-26T00:17:55.144Z,81.64
2018-09-26T00:20:23.982Z,80.87
2018-09-26T00:22:53.135Z,81.88
2018-09-26T00:25:21.917Z,81.84
2018-09-26T00:27:50.707Z,81.39
2018-09-26T00:30:19.481Z,80.71
2018-09-26T00:32:48.464Z,80.62
2018-09-26T00:35:17.318Z,80.59
2018-09-26T00:37:46.438Z,81.19
2018-09-26T00:40:15.194Z,80.36
2018-09-26T00:42:43.999Z,80.23
2018-09-26T00:45:13.131Z,79.99
2018-09-26T00:47:42.267Z,80.97
2018-09-26T00:50:11.039Z,80.36
2018-09-26T00:52:40.162Z,79.85
2018-09-26T00:55:08.962Z,80.22
2018-09-26T00:57:37.783Z,80.16
2018-09-26T01:00:06.989Z,80.41
2018-09-26T01:02:35.768Z,80.15
2018-09-26T01:05:04.707Z,80.98
2018-09-26T01:07:33.465Z,80.33
2018-09-26T01:10:02.379Z,80.31
2018-09-26T01:12:31.155Z,80.97
2018-09-26T01:14:59.963Z,80.19
2018-09-26T01:17:28.850Z,80.64
2018-09-26T01:19:57.662Z,80.75
2018-09-26T01:22:26.578Z,80.37
2018-09-26T01:24:55.370Z,80.80
2018-09-26T01:27:24.168Z,81.29
2018-09-26T01:29:53.327Z,80.84
2018-09-26T01:32:22.106Z,80.79
2018-09-26T01:34:50.972Z,80.73
2018-09-26T01:37:19.727Z,80.89
2018-09-26T01:39:48.535Z,81.10
2018-09-26T01:42:17.410Z,80.53
2018-09-26T01:44:46.526Z,82.02
2018-09-26T01:47:15.465Z,81.07
2018-09-26T01:49:44.318Z,80.60
2018-09-26T01:52:13.125Z,80.65
2018-09-26T01:54:41.928Z,80.77
2018-09-26T01:57:10.699Z,81.41
2018-09-26T01:59:39.616Z,81.62
2018-09-26T02:02:08.442Z,81.60
2018-09-26T02:04:37.239Z,80.96
2018-09-26T02:07:06.068Z,81.49
2018-09-26T02:09:34.857Z,81.83
2018-09-26T02:12:03.780Z,82.03
2018-09-26T02:14:32.564Z,81.99
2018-09-26T02:17:01.367Z,82.35
2018-09-26T02:19:30.151Z,81.92
2018-09-26T02:21:58.996Z,81.83
2018-09-26T02:24:27.834Z,81.91
2018-09-26T02:26:56.663Z,82.43
2018-09-26T02:29:25.452Z,82.27
2018-09-26T02:31:54.299Z,82.20
2018-09-26T02:34:23.052Z,82.03
2018-09-26T02:36:51.940Z,82.58
2018-09-26T02:39:20.707Z,82.07
2018-09-26T02:41:49.594Z,81.76
2018-09-26T02:44:18.396Z,81.84
2018-09-26T02:46:47.256Z,81.57
2018-09-26T02:49:16.283Z,81.64
2018-09-26T02:51:45.068Z,81.39
2018-09-26T02:54:13.888Z,81.50
2018-09-26T02:56:42.655Z,81.69
2018-09-26T02:59:11.516Z,81.21
2018-09-26T03:01:40.359Z,81.23
2018-09-26T03:04:09.160Z,81.07
2018-09-26T03:06:37.932Z,81.24
2018-09-26T03:09:08.354Z,81.47
2018-09-26T03:11:37.123Z,81.68
2018-09-26T03:14:06.010Z,81.02
2018-09-26T03:16:34.807Z,81.01
2018-09-26T03:19:03.649Z,81.41
2018-09-26T03:21:32.386Z,81.07
2018-09-26T03:24:01.171Z,81.50
2018-09-26T03:26:30.004Z,81.61
2018-09-26T03:28:58.843Z,81.43
2018-09-26T03:31:27.975Z,82.38
2018-09-26T03:33:56.835Z,81.76
2018-09-26T03:36:25.578Z,81.98
2018-09-26T03:38:54.692Z,82.39
2018-09-26T03:41:23.455Z,81.43
2018-09-26T03:43:52.311Z,81.29
2018-09-26T03:46:27.088Z,81.11
2018-09-26T03:48:55.986Z,81.36
2018-09-26T03:51:24.782Z,81.82
2018-09-26T03:53:53.562Z,82.13
2018-09-26T03:56:22.358Z,81.77
2018-09-26T03:58:51.182Z,81.07
2018-09-26T04:01:20.020Z,81.84
2018-09-26T04:03:48.876Z,81.57
2018-09-26T04:06:17.681Z,81.39
2018-09-26T04:08:46.608Z,82.43
2018-09-26T04:11:15.406Z,81.21
2018-09-26T04:13:44.831Z,81.53
2018-09-26T04:16:13.649Z,81.57
2018-09-26T04:18:42.422Z,81.56
2018-09-26T04:21:11.258Z,81.16
2018-09-26T04:23:40.003Z,81.23
2018-09-26T04:26:08.950Z,81.98
2018-09-26T04:28:37.725Z,81.88
2018-09-26T04:31:06.596Z,81.43
2018-09-26T04:33:35.440Z,81.47
2018-09-26T04:36:04.245Z,81.16
2018-09-26T04:38:33.152Z,81.17
2018-09-26T04:41:02.280Z,81.71
2018-09-26T04:43:31.286Z,81.90
2018-09-26T04:46:00.145Z,81.23
2018-09-26T04:48:28.926Z,80.95
2018-09-26T04:50:57.905Z,80.75
2018-09-26T04:53:26.697Z,80.81
2018-09-26T04:55:55.522Z,80.59
2018-09-26T04:58:24.331Z,80.78
2018-09-26T05:00:53.075Z,80.22
2018-09-26T05:03:21.960Z,80.32
2018-09-26T05:05:50.741Z,79.98
2018-09-26T05:08:19.616Z,79.77
2018-09-26T05:10:48.379Z,80.33
2018-09-26T05:13:17.236Z,79.94
2018-09-26T05:15:46.104Z,79.35
2018-09-26T05:18:14.915Z,79.43
2018-09-26T05:20:43.690Z,79.37
2018-09-26T05:23:12.535Z,79.10
2018-09-26T05:25:41.280Z,78.80
2018-09-26T05:28:10.217Z,78.97
2018-09-26T05:30:38.980Z,78.71
2018-09-26T05:33:07.843Z,78.60
2018-09-26T05:35:36.617Z,78.90
2018-09-26T05:38:05.424Z,78.31
2018-09-26T05:40:34.891Z,78.63
2018-09-26T05:43:03.703Z,78.76
2018-09-26T05:45:32.484Z,77.99
2018-09-26T05:48:01.331Z,77.95
2018-09-26T05:50:30.207Z,77.41
2018-09-26T05:52:59.002Z,77.00
2018-09-26T05:55:27.851Z,77.10
2018-09-26T05:57:56.625Z,77.08
2018-09-26T06:00:25.442Z,76.56
2018-09-26T06:02:54.228Z,76.41
2018-09-26T06:05:23.532Z,75.81
2018-09-26T06:07:52.530Z,76.01
2018-09-26T06:10:21.339Z,75.67
2018-09-26T06:12:50.180Z,76.10
2018-09-26T06:15:19.260Z,75.19
2018-09-26T06:17:48.410Z,74.70
2018-09-26T06:20:17.239Z,74.69
2018-09-26T06:22:46.079Z,74.81
2018-09-26T06:25:15.003Z,74.48
2018-09-26T06:27:43.799Z,73.62
2018-09-26T06:30:12.740Z,73.70
2018-09-26T06:32:41.512Z,72.93
2018-09-26T06:35:10.496Z,72.52
2018-09-26T06:37:39.276Z,72.65
2018-09-26T06:40:08.269Z,71.95
2018-09-26T06:42:37.108Z,71.62
2018-09-26T06:45:09.266Z,71.14
2018-09-26T06:47:38.106Z,71.10
2018-09-26T06:50:07.081Z,71.05
2018-09-26T06:52:35.867Z,70.73
2018-09-26T06:55:04.732Z,70.21
2018-09-26T06:57:33.567Z,69.71
2018-09-26T07:00:02.361Z,70.29
2018-09-26T07:02:31.393Z,69.84
2018-09-26T07:05:00.182Z,69.39
2018-09-26T07:07:29.066Z,68.57
2018-09-26T07:09:57.832Z,68.45
2018-09-26T07:12:26.648Z,68.12
2018-09-26T07:14:55.383Z,67.93
2018-09-26T07:17:24.264Z,68.02
2018-09-26T07:19:53.135Z,66.91
2018-09-26T07:22:21.977Z,67.21
2018-09-26T07:24:50.765Z,67.22
2018-09-26T07:27:19.628Z,67.12
2018-09-26T07:29:48.439Z,66.60
2018-09-26T07:32:17.433Z,65.89
2018-09-26T07:34:46.220Z,65.50
2018-09-26T07:37:15.085Z,65.02
2018-09-26T07:39:43.872Z,64.37
2018-09-26T07:42:12.659Z,63.98
2018-09-26T07:44:41.575Z,63.88
2018-09-26T07:47:10.341Z,63.39
2018-09-26T07:49:39.192Z,63.61
2018-09-26T07:52:07.972Z,61.35
2018-09-26T07:54:36.823Z,60.99
2018-09-26T07:57:05.909Z,60.73
2018-09-26T07:59:34.750Z,59.96
2018-09-26T08:02:03.508Z,60.68
2018-09-26T08:04:32.310Z,59.25
2018-09-26T08:07:01.126Z,59.11
2018-09-26T08:09:30.015Z,58.48
2018-09-26T08:11:58.815Z,58.70
2018-09-26T08:14:27.737Z,58.08
2018-09-26T08:16:56.880Z,58.06
2018-09-26T08:19:25.689Z,56.84
2018-09-26T08:21:54.532Z,57.62
2018-09-26T08:24:23.724Z,58.60
2018-09-26T08:26:52.534Z,58.28
2018-09-26T08:29:21.376Z,58.18
2018-09-26T08:31:50.530Z,57.10
2018-09-26T08:34:19.411Z,56.40
2018-09-26T08:36:48.171Z,56.55
2018-09-26T08:39:16.956Z,57.09
2018-09-26T08:41:45.744Z,57.16
2018-09-26T08:44:14.718Z,57.42
2018-09-26T08:46:43.716Z,56.88
2018-09-26T08:49:12.579Z,56.81
2018-09-26T08:51:41.389Z,56.32
2018-09-26T08:54:10.168Z,56.49
2018-09-26T08:56:38.980Z,55.99
2018-09-26T08:59:07.847Z,55.85
2018-09-26T09:01:42.109Z,55.92
2018-09-26T09:04:10.907Z,56.81
2018-09-26T09:06:39.749Z,55.46
2018-09-26T09:09:09.082Z,56.05
2018-09-26T09:11:38.416Z,55.91
2018-09-26T09:14:07.530Z,55.15
2018-09-26T09:16:36.331Z,55.46
2018-09-26T09:19:05.171Z,56.59
2018-09-26T09:21:33.994Z,56.50
2018-09-26T09:24:02.865Z,57.01
2018-09-26T09:26:31.712Z,55.57
2018-09-26T09:29:00.465Z,55.74
2018-09-26T09:31:29.289Z,56.25
2018-09-26T09:33:58.053Z,56.80
2018-09-26T09:36:26.997Z,55.35
2018-09-26T09:38:55.721Z,55.89
2018-09-26T09:41:24.507Z,56.29
2018-09-26T09:43:53.304Z,55.49
2018-09-26T09:46:22.084Z,55.91
2018-09-26T09:48:51.133Z,56.12
2018-09-26T09:51:19.915Z,55.38
2018-09-26T09:53:49.070Z,56.59
2018-09-26T09:56:17.901Z,55.85
2018-09-26T09:58:46.695Z,55.77
2018-09-26T10:01:20.974Z,55.73
2018-09-26T10:03:49.885Z,55.95
2018-09-26T10:06:18.627Z,55.73
2018-09-26T10:08:47.469Z,56.41
2018-09-26T10:11:16.339Z,55.83
2018-09-26T10:13:45.920Z,55.53
2018-09-26T10:16:14.884Z,55.52
2018-09-26T10:18:44.311Z,55.38
2018-09-26T10:21:13.207Z,56.15
2018-09-26T10:23:42.068Z,55.87
2018-09-26T10:26:10.945Z,54.80
2018-09-26T10:28:40.384Z,55.52
2018-09-26T10:31:09.360Z,55.10
2018-09-26T10:33:38.176Z,54.25
2018-09-26T10:36:07.225Z,54.94
2018-09-26T10:38:36.039Z,54.02
2018-09-26T10:41:04.825Z,54.38
2018-09-26T10:43:33.613Z,54.19
2018-09-26T10:46:02.400Z,53.70
2018-09-26T10:48:31.399Z,53.61
2018-09-26T10:51:00.212Z,54.13
2018-09-26T10:53:28.976Z,52.95
2018-09-26T10:55:57.780Z,52.41
2018-09-26T10:58:26.540Z,52.16
2018-09-26T11:00:55.404Z,52.03
2018-09-26T11:03:24.176Z,51.77
2018-09-26T11:05:53.016Z,51.99
2018-09-26T11:08:21.900Z,51.72
2018-09-26T11:10:50.683Z,51.95
2018-09-26T11:13:19.502Z,52.02
2018-09-26T11:15:48.345Z,51.63
2018-09-26T11:18:17.120Z,51.15
2018-09-26T11:20:46.166Z,50.79
2018-09-26T11:23:14.977Z,51.04
2018-09-26T11:25:43.842Z,51.16
2018-09-26T11:28:12.629Z,51.26
2018-09-26T11:30:41.432Z,51.59
2018-09-26T11:33:10.366Z,50.86
2018-09-26T11:35:39.762Z,49.76
2018-09-26T11:38:08.787Z,49.42
2018-09-26T11:40:37.624Z,48.98
2018-09-26T11:43:06.604Z,49.43
2018-09-26T11:45:35.422Z,49.60
2018-09-26T11:48:04.275Z,50.28
2018-09-26T11:50:33.079Z,48.91
2018-09-26T11:53:01.869Z,48.64
2018-09-26T11:55:30.655Z,49.24
2018-09-26T11:57:59.784Z,49.32
2018-09-26T12:00:28.534Z,48.49
2018-09-26T12:02:57.394Z,48.49
2018-09-26T12:05:26.159Z,47.96
2018-09-26T12:07:54.967Z,48.17
2018-09-26T12:10:23.823Z,47.83
2018-09-26T12:12:52.583Z,47.62
2018-09-26T12:15:21.431Z,47.17
2018-09-26T12:17:50.245Z,48.19
2018-09-26T12:20:19.011Z,47.61
2018-09-26T12:22:48.079Z,47.93
2018-09-26T12:25:17.183Z,47.85
2018-09-26T12:27:46.687Z,48.50
2018-09-26T12:30:15.474Z,47.89
2018-09-26T12:32:44.336Z,47.84
2018-09-26T12:35:13.276Z,47.74
2018-09-26T12:37:42.128Z,47.60
2018-09-26T12:40:11.066Z,47.52
2018-09-26T12:42:39.936Z,46.98
2018-09-26T12:45:09.649Z,46.56
2018-09-26T12:47:38.475Z,46.80
2018-09-26T12:50:07.355Z,46.91
2018-09-26T12:52:36.296Z,45.90
2018-09-26T12:55:05.579Z,45.93
2018-09-26T12:57:34.411Z,46.21
2018-09-26T13:00:03.284Z,46.00
2018-09-26T13:02:32.123Z,45.76
2018-09-26T13:05:00.966Z,44.81
2018-09-26T13:07:29.724Z,44.80
2018-09-26T13:09:58.541Z,45.86
2018-09-26T13:12:27.343Z,44.86
2018-09-26T13:14:56.169Z,44.90
2018-09-26T13:17:25.181Z,45.36
2018-09-26T13:19:53.988Z,45.44
2018-09-26T13:22:22.788Z,44.47
2018-09-26T13:24:51.600Z,44.22
2018-09-26T13:27:20.356Z,44.02
2018-09-26T13:29:49.228Z,44.35
2018-09-26T13:32:18.075Z,44.06
2018-09-26T13:34:46.834Z,45.04
2018-09-26T13:37:15.682Z,45.11
2018-09-26T13:39:44.524Z,45.49
2018-09-26T13:42:13.423Z,45.43
2018-09-26T13:44:42.227Z,46.08
2018-09-26T13:47:10.999Z,45.88
2018-09-26T13:49:39.870Z,46.67
2018-09-26T13:52:08.710Z,46.04
2018-09-26T13:54:37.484Z,45.67
2018-09-26T13:57:06.465Z,44.87
2018-09-26T13:59:35.251Z,44.38
2018-09-26T14:02:04.062Z,43.57
2018-09-26T14:04:32.814Z,44.26
2018-09-26T14:07:01.676Z,43.81
2018-09-26T14:09:30.465Z,43.44
2018-09-26T14:11:59.276Z,42.40
2018-09-26T14:14:28.099Z,43.35
2018-09-26T14:16:56.897Z,43.58
2018-09-26T14:19:26.152Z,43.78
2018-09-26T14:21:54.952Z,44.08
2018-09-26T14:24:23.740Z,44.47
2018-09-26T14:26:52.562Z,43.56
2018-09-26T14:29:21.334Z,42.68
2018-09-26T14:31:50.471Z,43.10
2018-09-26T14:34:19.336Z,43.61
2018-09-26T14:36:48.139Z,44.45
2018-09-26T14:39:16.972Z,43.43
2018-09-26T14:41:45.708Z,43.76
2018-09-26T14:44:14.854Z,43.54
2018-09-26T14:46:43.644Z,43.42
2018-09-26T14:49:12.506Z,43.67
2018-09-26T14:51:41.336Z,43.83
2018-09-26T14:54:10.108Z,43.84
2018-09-26T14:56:38.942Z,43.85
2018-09-26T14:59:07.812Z,44.65
2018-09-26T15:01:36.863Z,44.32
2018-09-26T15:04:05.794Z,44.76
2018-09-26T15:06:34.612Z,44.70
2018-09-26T15:09:04.812Z,44.37
2018-09-26T15:11:33.595Z,46.07
2018-09-26T15:14:02.433Z,45.87
2018-09-26T15:16:31.192Z,45.87
2018-09-26T15:19:00.092Z,45.67
2018-09-26T15:21:28.941Z,45.71
2018-09-26T15:23:57.752Z,46.08
2018-09-26T15:26:26.578Z,46.20
2018-09-26T15:28:55.374Z,46.08
2018-09-26T15:31:24.143Z,45.84
2018-09-26T15:33:52.993Z,45.08
2018-09-26T15:36:21.787Z,45.77
2018-09-26T15:38:50.599Z,45.99
2018-09-26T15:41:19.340Z,46.52
2018-09-26T15:43:48.134Z,46.59
2018-09-26T15:46:17.283Z,46.58
2018-09-26T15:48:46.461Z,44.88
2018-09-26T15:51:15.228Z,45.18
2018-09-26T15:53:44.051Z,45.94
2018-09-26T15:56:12.865Z,46.75
2018-09-26T15:58:41.663Z,46.30
2018-09-26T16:01:10.462Z,46.01
2018-09-26T16:03:39.216Z,46.28
2018-09-26T16:06:08.096Z,46.10
2018-09-26T16:08:36.872Z,46.23
2018-09-26T16:11:05.783Z,46.64
2018-09-26T16:13:34.584Z,47.58
2018-09-26T16:16:03.676Z,47.15
2018-09-26T16:18:32.446Z,46.93
2018-09-26T16:21:01.555Z,47.62
2018-09-26T16:23:30.388Z,47.73
2018-09-26T16:25:59.245Z,48.30
2018-09-26T16:28:28.154Z,48.33
2018-09-26T16:30:56.836Z,48.80
2018-09-26T16:33:25.633Z,48.82
2018-09-26T16:35:54.550Z,49.60
2018-09-26T16:38:23.382Z,48.97
2018-09-26T16:40:52.205Z,49.34
2018-09-26T16:43:21.816Z,49.09
2018-09-26T16:45:52.112Z,50.06
2018-09-26T16:48:21.126Z,49.92
2018-09-26T16:50:50.324Z,51.19
2018-09-26T16:53:19.286Z,50.89
2018-09-26T16:55:48.095Z,51.14
2018-09-26T16:58:16.912Z,51.27
2018-09-26T17:00:45.807Z,51.15
2018-09-26T17:03:14.584Z,51.06
2018-09-26T17:05:43.377Z,51.21
2018-09-26T17:08:12.246Z,50.96
2018-09-26T17:10:41.127Z,51.49
2018-09-26T17:13:10.032Z,51.40
2018-09-26T17:15:38.846Z,51.11
2018-09-26T17:18:07.689Z,51.36
2018-09-26T17:20:36.471Z,51.76
2018-09-26T17:23:05.348Z,51.51
2018-09-26T17:25:34.154Z,52.30
2018-09-26T17:28:02.960Z,51.91
2018-09-26T17:30:31.712Z,52.73
2018-09-26T17:33:00.544Z,52.29
2018-09-26T17:35:29.328Z,52.24
2018-09-26T17:37:58.257Z,52.33
2018-09-26T17:40:27.197Z,52.42
2018-09-26T17:42:55.919Z,53.12
2018-09-26T17:45:24.727Z,52.71
2018-09-26T17:47:53.519Z,53.60
2018-09-26T17:50:22.411Z,53.38
2018-09-26T17:52:51.372Z,53.26
2018-09-26T17:55:20.184Z,53.40
2018-09-26T17:57:49.370Z,53.71
2018-09-26T18:00:18.259Z,53.65
2018-09-26T18:02:47.047Z,53.49
2018-09-26T18:05:15.956Z,53.78
2018-09-26T18:07:44.752Z,53.96
2018-09-26T18:10:13.567Z,53.42
2018-09-26T18:12:42.408Z,54.35
2018-09-26T18:15:12.189Z,54.45
2018-09-26T18:17:41.005Z,54.33
2018-09-26T18:20:09.848Z,54.01
2018-09-26T18:22:38.600Z,54.29
2018-09-26T18:25:07.906Z,54.76
2018-09-26T18:27:36.840Z,54.68
2018-09-26T18:30:06.249Z,54.78
2018-09-26T18:32:35.028Z,54.67
2018-09-26T18:35:03.876Z,54.79
2018-09-26T18:37:32.628Z,54.48
2018-09-26T18:40:01.552Z,54.74
2018-09-26T18:42:30.329Z,54.53
2018-09-26T18:45:05.602Z,55.14
2018-09-26T18:47:34.305Z,55.11
2018-09-26T18:50:04.120Z,54.62
2018-09-26T18:52:33.812Z,54.63
2018-09-26T18:55:07.141Z,55.31
2018-09-26T18:57:35.930Z,54.98
2018-09-26T19:00:05.005Z,55.23
2018-09-26T19:02:33.808Z,55.44
2018-09-26T19:05:03.052Z,55.52
2018-09-26T19:07:31.745Z,55.55
2018-09-26T19:10:00.577Z,55.89
2018-09-26T19:12:29.648Z,56.51
2018-09-26T19:14:58.770Z,56.21
2018-09-26T19:17:27.581Z,55.89
2018-09-26T19:19:56.378Z,55.82
2018-09-26T19:22:25.262Z,56.38
2018-09-26T19:24:54.161Z,56.31
2018-09-26T19:27:23.103Z,56.19
2018-09-26T19:29:51.896Z,56.52
2018-09-26T19:32:20.753Z,56.70
2018-09-26T19:34:49.529Z,57.73
2018-09-26T19:37:18.417Z,57.24
2018-09-26T19:39:47.245Z,57.67
2018-09-26T19:42:16.107Z,57.57
2018-09-26T19:44:44.909Z,58.55
2018-09-26T19:47:13.785Z,58.71
2018-09-26T19:49:42.650Z,58.58
2018-09-26T19:52:11.880Z,58.63
2018-09-26T19:54:40.716Z,59.44
2018-09-26T19:57:09.556Z,59.59
2018-09-26T19:59:38.342Z,59.77
2018-09-26T20:02:07.539Z,60.04
2018-09-26T20:04:36.454Z,60.70
2018-09-26T20:07:05.466Z,60.53
2018-09-26T20:09:34.288Z,61.07
2018-09-26T20:12:03.092Z,61.57
2018-09-26T20:14:31.963Z,62.38
2018-09-26T20:17:00.772Z,62.91
2018-09-26T20:19:29.592Z,63.75
2018-09-26T20:21:58.409Z,64.01
2018-09-26T20:24:27.247Z,64.19
2018-09-26T20:26:56.142Z,64.83
2018-09-26T20:29:25.071Z,64.73
2018-09-26T20:31:53.795Z,64.14
2018-09-26T20:34:22.604Z,64.86
2018-09-26T20:36:52.713Z,64.97
2018-09-26T20:39:21.608Z,66.58
2018-09-26T20:41:50.391Z,66.02
2018-09-26T20:44:19.295Z,67.20
2018-09-26T20:46:48.094Z,67.46
2018-09-26T20:49:16.948Z,66.77
2018-09-26T20:51:45.808Z,66.97
2018-09-26T20:54:15.000Z,67.33
2018-09-26T20:56:43.776Z,66.33
2018-09-26T20:59:13.005Z,66.46
2018-09-26T21:01:41.884Z,66.18
2018-09-26T21:04:10.707Z,65.95
2018-09-26T21:06:39.548Z,65.45
2018-09-26T21:09:10.105Z,65.26
2018-09-26T21:11:39.292Z,64.74
2018-09-26T21:14:08.412Z,64.67
2018-09-26T21:16:37.404Z,63.92
2018-09-26T21:19:06.293Z,64.34
2018-09-26T21:21:35.145Z,64.88
2018-09-26T21:24:03.965Z,64.38
2018-09-26T21:26:32.795Z,64.64
2018-09-26T21:29:01.645Z,64.39
2018-09-26T21:31:30.494Z,64.47
2018-09-26T21:33:59.285Z,64.30
2018-09-26T21:36:28.130Z,63.93
2018-09-26T21:38:56.999Z,63.78
2018-09-26T21:41:25.864Z,64.68
2018-09-26T21:43:54.664Z,63.38
2018-09-26T21:46:28.480Z,63.92
2018-09-26T21:48:57.271Z,64.30
2018-09-26T21:51:26.189Z,64.43
2018-09-26T21:53:55.073Z,63.98
2018-09-26T21:56:23.925Z,64.43
2018-09-26T21:58:53.037Z,64.70
2018-09-26T22:01:21.935Z,64.13
2018-09-26T22:03:50.732Z,63.88
2018-09-26T22:06:19.872Z,64.75
2018-09-26T22:08:48.701Z,64.77
2018-09-26T22:11:17.520Z,64.64
2018-09-26T22:13:46.376Z,65.26
2018-09-26T22:16:15.207Z,65.36
2018-09-26T22:18:44.086Z,65.87
2018-09-26T22:21:12.893Z,66.45
2018-09-26T22:23:41.755Z,66.44
2018-09-26T22:26:10.568Z,66.51
2018-09-26T22:28:39.392Z,66.30
2018-09-26T22:31:08.423Z,66.85
2018-09-26T22:33:37.262Z,67.54
2018-09-26T22:36:06.106Z,66.76
2018-09-26T22:38:34.928Z,67.65
2018-09-26T22:41:03.761Z,67.63
2018-09-26T22:43:32.644Z,66.97
2018-09-26T22:46:01.732Z,67.50
2018-09-26T22:48:30.613Z,66.74
2018-09-26T22:50:59.433Z,67.16
2018-09-26T22:53:28.264Z,66.54
2018-09-26T22:55:57.281Z,66.84
2018-09-26T22:58:26.128Z,66.58
2018-09-26T23:00:54.935Z,66.15
2018-09-26T23:03:23.736Z,66.89
2018-09-26T23:05:52.583Z,66.53
2018-09-26T23:08:21.439Z,66.45
2018-09-26T23:10:50.642Z,66.25
2018-09-26T23:13:19.448Z,66.48
2018-09-26T23:15:48.314Z,66.62
2018-09-26T23:18:17.199Z,67.00
2018-09-26T23:20:46.155Z,66.51
2018-09-26T23:23:14.960Z,66.87
2018-09-26T23:25:43.801Z,66.57
2018-09-26T23:28:12.615Z,67.09
2018-09-26T23:30:41.461Z,66.57
2018-09-26T23:33:10.649Z,66.38
2018-09-26T23:35:39.485Z,67.12
2018-09-26T23:38:08.281Z,67.18
2018-09-26T23:40:37.134Z,67.06
2018-09-26T23:43:06.060Z,66.70
2018-09-26T23:45:34.969Z,67.11
2018-09-26T23:48:03.781Z,66.87
2018-09-26T23:50:32.695Z,66.93
2018-09-26T23:53:01.577Z,67.17
2018-09-26T23:55:30.409Z,67.17
2018-09-26T23:57:59.271Z,67.03
